sensor_id;sensor_type;location;lat;lon;timestamp;temperature;humidity
12811;DHT22;6470;47.654;7.896;2023-04-15T00:00:31;4.90;99.90
12811;DHT22;6470;47.654;7.896;2023-04-15T00:02:58;5.00;99.90
12811;DHT22;6470;47.654;7.896;2023-04-15T00:05:24;4.60;99.90
12811;DHT22;6470;47.654;7.896;2023-04-15T00:07:50;4.40;99.90
12811;DHT22;6470;47.654;7.896;2023-04-15T00:10:16;4.80;99.90
12811;DHT22;6470;47.654;7.896;2023-04-15T00:12:41;4.30;99.90
12811;DHT22;6470;47.654;7.896;2023-04-15T00:15:08;1.90;99.90
12811;DHT22;6470;47.654;7.896;2023-04-15T00:17:34;4.70;99.90
12811;DHT22;6470;47.654;7.896;2023-04-15T00:20:00;4.40;99.90
12811;DHT22;6470;47.654;7.896;2023-04-15T00:22:26;5.00;99.90
12811;DHT22;6470;47.654;7.896;2023-04-15T00:24:52;4.70;99.90
12811;DHT22;6470;47.654;7.896;2023-04-15T00:27:18;4.40;99.90
12811;DHT22;6470;47.654;7.896;2023-04-15T00:29:44;4.40;99.90
12811;DHT22;6470;47.654;7.896;2023-04-15T00:32:10;5.00;99.90
12811;DHT22;6470;47.654;7.896;2023-04-15T00:34:36;4.80;99.90
12811;DHT22;6470;47.654;7.896;2023-04-15T00:39:27;4.80;99.90
12811;DHT22;6470;47.654;7.896;2023-04-15T00:41:54;5.10;99.90
12811;DHT22;6470;47.654;7.896;2023-04-15T00:44:20;5.00;99.90
12811;DHT22;6470;47.654;7.896;2023-04-15T00:46:49;2.20;99.90
12811;DHT22;6470;47.654;7.896;2023-04-15T00:51:42;4.70;99.90
12811;DHT22;6470;47.654;7.896;2023-04-15T00:54:09;4.90;99.90
12811;DHT22;6470;47.654;7.896;2023-04-15T00:56:35;4.80;99.90
12811;DHT22;6470;47.654;7.896;2023-04-15T01:01:28;5.60;99.90
12811;DHT22;6470;47.654;7.896;2023-04-15T01:03:57;4.80;99.90
12811;DHT22;6470;47.654;7.896;2023-04-15T01:06:23;2.20;99.90
12811;DHT22;6470;47.654;7.896;2023-04-15T01:08:49;5.30;99.90
12811;DHT22;6470;47.654;7.896;2023-04-15T01:11:16;4.70;99.90
12811;DHT22;6470;47.654;7.896;2023-04-15T01:13:42;5.00;99.90
12811;DHT22;6470;47.654;7.896;2023-04-15T01:16:08;5.70;99.90
12811;DHT22;6470;47.654;7.896;2023-04-15T01:18:35;5.70;99.90
12811;DHT22;6470;47.654;7.896;2023-04-15T01:21:04;5.70;99.90
12811;DHT22;6470;47.654;7.896;2023-04-15T01:23:30;5.20;99.90
12811;DHT22;6470;47.654;7.896;2023-04-15T01:25:56;5.40;99.90
12811;DHT22;6470;47.654;7.896;2023-04-15T01:28:23;5.50;99.90
12811;DHT22;6470;47.654;7.896;2023-04-15T01:31:03;5.30;99.90
12811;DHT22;6470;47.654;7.896;2023-04-15T01:33:30;3.20;99.90
12811;DHT22;6470;47.654;7.896;2023-04-15T01:35:56;4.80;99.90
12811;DHT22;6470;47.654;7.896;2023-04-15T01:38:22;5.60;99.90
12811;DHT22;6470;47.654;7.896;2023-04-15T01:43:14;2.60;99.90
12811;DHT22;6470;47.654;7.896;2023-04-15T01:45:39;2.70;99.90
12811;DHT22;6470;47.654;7.896;2023-04-15T01:48:06;5.20;99.90
12811;DHT22;6470;47.654;7.896;2023-04-15T01:50:31;4.90;99.90
12811;DHT22;6470;47.654;7.896;2023-04-15T01:52:57;2.60;99.90
12811;DHT22;6470;47.654;7.896;2023-04-15T01:57:49;5.50;99.90
12811;DHT22;6470;47.654;7.896;2023-04-15T02:00:15;5.40;99.90
12811;DHT22;6470;47.654;7.896;2023-04-15T02:02:41;3.30;99.90
12811;DHT22;6470;47.654;7.896;2023-04-15T02:05:08;5.90;99.90
12811;DHT22;6470;47.654;7.896;2023-04-15T02:07:34;5.10;99.90
12811;DHT22;6470;47.654;7.896;2023-04-15T02:10:00;5.10;99.90
12811;DHT22;6470;47.654;7.896;2023-04-15T02:17:17;6.00;99.90
12811;DHT22;6470;47.654;7.896;2023-04-15T02:19:43;5.40;99.90
12811;DHT22;6470;47.654;7.896;2023-04-15T02:22:09;5.80;99.90
12811;DHT22;6470;47.654;7.896;2023-04-15T02:24:37;4.70;99.90
12811;DHT22;6470;47.654;7.896;2023-04-15T02:27:03;5.50;99.90
12811;DHT22;6470;47.654;7.896;2023-04-15T02:29:31;5.50;99.90
12811;DHT22;6470;47.654;7.896;2023-04-15T02:34:23;5.90;99.90
12811;DHT22;6470;47.654;7.896;2023-04-15T02:36:48;5.70;99.90
12811;DHT22;6470;47.654;7.896;2023-04-15T02:41:45;5.60;99.90
12811;DHT22;6470;47.654;7.896;2023-04-15T02:44:16;5.90;99.90
12811;DHT22;6470;47.654;7.896;2023-04-15T02:46:45;5.80;99.90
12811;DHT22;6470;47.654;7.896;2023-04-15T02:49:15;6.20;99.90
12811;DHT22;6470;47.654;7.896;2023-04-15T02:51:40;5.70;99.90
12811;DHT22;6470;47.654;7.896;2023-04-15T02:54:06;5.40;99.90
12811;DHT22;6470;47.654;7.896;2023-04-15T02:56:33;5.70;99.90
12811;DHT22;6470;47.654;7.896;2023-04-15T03:01:25;5.60;99.90
12811;DHT22;6470;47.654;7.896;2023-04-15T03:03:50;6.00;99.90
12811;DHT22;6470;47.654;7.896;2023-04-15T03:06:16;6.00;99.90
12811;DHT22;6470;47.654;7.896;2023-04-15T03:08:42;5.90;99.90
12811;DHT22;6470;47.654;7.896;2023-04-15T03:11:08;5.60;99.90
12811;DHT22;6470;47.654;7.896;2023-04-15T03:13:33;5.40;99.90
12811;DHT22;6470;47.654;7.896;2023-04-15T03:15:59;5.70;99.90
12811;DHT22;6470;47.654;7.896;2023-04-15T03:23:17;5.30;99.90
12811;DHT22;6470;47.654;7.896;2023-04-15T03:25:44;5.90;99.90
12811;DHT22;6470;47.654;7.896;2023-04-15T03:30:35;5.80;99.90
12811;DHT22;6470;47.654;7.896;2023-04-15T03:33:01;5.90;99.90
12811;DHT22;6470;47.654;7.896;2023-04-15T03:35:27;5.40;99.90
12811;DHT22;6470;47.654;7.896;2023-04-15T03:37:52;5.70;99.90
12811;DHT22;6470;47.654;7.896;2023-04-15T03:40:19;5.20;99.90
12811;DHT22;6470;47.654;7.896;2023-04-15T03:45:11;5.70;99.90
12811;DHT22;6470;47.654;7.896;2023-04-15T03:50:04;5.70;99.90
12811;DHT22;6470;47.654;7.896;2023-04-15T03:52:29;5.80;99.90
12811;DHT22;6470;47.654;7.896;2023-04-15T03:54:55;5.30;99.90
12811;DHT22;6470;47.654;7.896;2023-04-15T03:59:47;5.30;99.90
12811;DHT22;6470;47.654;7.896;2023-04-15T04:02:13;5.70;99.90
12811;DHT22;6470;47.654;7.896;2023-04-15T04:04:38;5.70;99.90
12811;DHT22;6470;47.654;7.896;2023-04-15T04:07:04;3.20;99.90
12811;DHT22;6470;47.654;7.896;2023-04-15T04:09:30;5.80;99.90
12811;DHT22;6470;47.654;7.896;2023-04-15T04:11:56;5.90;99.90
12811;DHT22;6470;47.654;7.896;2023-04-15T04:14:22;5.70;99.90
12811;DHT22;6470;47.654;7.896;2023-04-15T04:16:53;5.60;99.90
12811;DHT22;6470;47.654;7.896;2023-04-15T04:19:19;5.40;99.90
12811;DHT22;6470;47.654;7.896;2023-04-15T04:21:45;5.40;99.90
12811;DHT22;6470;47.654;7.896;2023-04-15T04:24:11;5.70;99.90
12811;DHT22;6470;47.654;7.896;2023-04-15T04:29:03;5.50;99.90
12811;DHT22;6470;47.654;7.896;2023-04-15T04:31:28;5.20;99.90
12811;DHT22;6470;47.654;7.896;2023-04-15T04:33:54;5.60;99.90
12811;DHT22;6470;47.654;7.896;2023-04-15T04:36:19;5.60;99.90
12811;DHT22;6470;47.654;7.896;2023-04-15T04:38:45;5.60;99.90
12811;DHT22;6470;47.654;7.896;2023-04-15T04:41:11;2.80;99.90
12811;DHT22;6470;47.654;7.896;2023-04-15T04:43:37;5.70;99.90
12811;DHT22;6470;47.654;7.896;2023-04-15T04:46:02;5.80;99.90
12811;DHT22;6470;47.654;7.896;2023-04-15T04:48:28;5.90;99.90
12811;DHT22;6470;47.654;7.896;2023-04-15T04:50:53;5.40;99.90
12811;DHT22;6470;47.654;7.896;2023-04-15T04:53:20;5.70;99.90
12811;DHT22;6470;47.654;7.896;2023-04-15T04:55:45;5.20;99.90
12811;DHT22;6470;47.654;7.896;2023-04-15T04:58:11;5.60;99.90
12811;DHT22;6470;47.654;7.896;2023-04-15T05:00:37;3.00;99.90
12811;DHT22;6470;47.654;7.896;2023-04-15T05:03:03;6.00;99.90
12811;DHT22;6470;47.654;7.896;2023-04-15T05:05:28;5.80;99.90
12811;DHT22;6470;47.654;7.896;2023-04-15T05:07:54;6.50;99.90
12811;DHT22;6470;47.654;7.896;2023-04-15T05:10:20;6.00;99.90
12811;DHT22;6470;47.654;7.896;2023-04-15T05:15:12;3.60;99.90
12811;DHT22;6470;47.654;7.896;2023-04-15T05:17:37;6.10;99.90
12811;DHT22;6470;47.654;7.896;2023-04-15T05:20:03;6.40;99.90
12811;DHT22;6470;47.654;7.896;2023-04-15T05:24:55;3.30;99.90
12811;DHT22;6470;47.654;7.896;2023-04-15T05:27:21;6.60;99.90
12811;DHT22;6470;47.654;7.896;2023-04-15T05:29:48;6.10;99.90
12811;DHT22;6470;47.654;7.896;2023-04-15T05:32:14;6.10;99.90
12811;DHT22;6470;47.654;7.896;2023-04-15T05:34:39;6.00;99.90
12811;DHT22;6470;47.654;7.896;2023-04-15T05:37:06;6.00;99.90
12811;DHT22;6470;47.654;7.896;2023-04-15T05:39:32;6.10;99.90
12811;DHT22;6470;47.654;7.896;2023-04-15T05:41:58;6.10;99.90
12811;DHT22;6470;47.654;7.896;2023-04-15T05:44:24;6.10;99.90
12811;DHT22;6470;47.654;7.896;2023-04-15T05:46:50;6.00;99.90
12811;DHT22;6470;47.654;7.896;2023-04-15T05:49:16;6.40;99.90
12811;DHT22;6470;47.654;7.896;2023-04-15T05:51:42;6.60;99.90
12811;DHT22;6470;47.654;7.896;2023-04-15T05:54:07;6.20;99.90
12811;DHT22;6470;47.654;7.896;2023-04-15T05:56:33;6.20;99.90
12811;DHT22;6470;47.654;7.896;2023-04-15T05:58:59;6.40;99.90
12811;DHT22;6470;47.654;7.896;2023-04-15T06:01:24;6.30;99.90
12811;DHT22;6470;47.654;7.896;2023-04-15T06:03:50;6.30;99.90
12811;DHT22;6470;47.654;7.896;2023-04-15T06:06:16;6.50;99.90
12811;DHT22;6470;47.654;7.896;2023-04-15T06:08:41;6.00;99.90
12811;DHT22;6470;47.654;7.896;2023-04-15T06:11:07;6.20;99.90
12811;DHT22;6470;47.654;7.896;2023-04-15T06:13:33;6.30;99.90
12811;DHT22;6470;47.654;7.896;2023-04-15T06:15:59;3.40;99.90
12811;DHT22;6470;47.654;7.896;2023-04-15T06:18:25;6.50;99.90
12811;DHT22;6470;47.654;7.896;2023-04-15T06:20:50;6.60;99.90
12811;DHT22;6470;47.654;7.896;2023-04-15T06:23:16;6.60;99.90
12811;DHT22;6470;47.654;7.896;2023-04-15T06:25:42;6.40;99.90
12811;DHT22;6470;47.654;7.896;2023-04-15T06:28:07;6.10;99.90
12811;DHT22;6470;47.654;7.896;2023-04-15T06:30:33;6.70;99.90
12811;DHT22;6470;47.654;7.896;2023-04-15T06:33:00;7.00;99.90
12811;DHT22;6470;47.654;7.896;2023-04-15T06:35:27;6.70;99.90
12811;DHT22;6470;47.654;7.896;2023-04-15T06:40:19;7.10;99.90
12811;DHT22;6470;47.654;7.896;2023-04-15T06:42:45;7.10;99.90
12811;DHT22;6470;47.654;7.896;2023-04-15T06:45:11;7.20;99.90
12811;DHT22;6470;47.654;7.896;2023-04-15T06:50:03;7.10;99.90
12811;DHT22;6470;47.654;7.896;2023-04-15T06:52:28;7.30;99.90
12811;DHT22;6470;47.654;7.896;2023-04-15T06:54:54;7.30;99.90
12811;DHT22;6470;47.654;7.896;2023-04-15T06:57:20;7.60;99.90
12811;DHT22;6470;47.654;7.896;2023-04-15T06:59:46;8.70;99.90
12811;DHT22;6470;47.654;7.896;2023-04-15T07:02:12;8.20;99.90
12811;DHT22;6470;47.654;7.896;2023-04-15T07:04:39;9.00;99.90
12811;DHT22;6470;47.654;7.896;2023-04-15T07:07:05;8.30;99.90
12811;DHT22;6470;47.654;7.896;2023-04-15T07:09:30;8.80;99.90
12811;DHT22;6470;47.654;7.896;2023-04-15T07:11:56;8.90;99.90
12811;DHT22;6470;47.654;7.896;2023-04-15T07:14:22;9.00;99.90
12811;DHT22;6470;47.654;7.896;2023-04-15T07:16:48;9.00;99.90
12811;DHT22;6470;47.654;7.896;2023-04-15T07:19:14;8.80;99.90
12811;DHT22;6470;47.654;7.896;2023-04-15T07:21:40;8.80;99.90
12811;DHT22;6470;47.654;7.896;2023-04-15T07:24:05;8.80;99.90
12811;DHT22;6470;47.654;7.896;2023-04-15T07:26:31;7.00;99.90
12811;DHT22;6470;47.654;7.896;2023-04-15T07:28:57;8.70;99.90
12811;DHT22;6470;47.654;7.896;2023-04-15T07:31:22;9.30;99.90
12811;DHT22;6470;47.654;7.896;2023-04-15T07:33:48;9.10;99.90
12811;DHT22;6470;47.654;7.896;2023-04-15T07:36:14;9.00;99.90
12811;DHT22;6470;47.654;7.896;2023-04-15T07:38:39;8.80;99.90
12811;DHT22;6470;47.654;7.896;2023-04-15T07:41:05;8.90;99.90
12811;DHT22;6470;47.654;7.896;2023-04-15T07:43:31;8.90;99.90
12811;DHT22;6470;47.654;7.896;2023-04-15T07:45:57;9.30;99.90
12811;DHT22;6470;47.654;7.896;2023-04-15T07:53:14;9.40;99.90
12811;DHT22;6470;47.654;7.896;2023-04-15T07:55:40;9.20;99.90
12811;DHT22;6470;47.654;7.896;2023-04-15T07:58:06;9.50;99.90
12811;DHT22;6470;47.654;7.896;2023-04-15T08:00:31;9.80;99.90
12811;DHT22;6470;47.654;7.896;2023-04-15T08:02:57;10.00;99.90
12811;DHT22;6470;47.654;7.896;2023-04-15T08:05:24;9.40;99.90
12811;DHT22;6470;47.654;7.896;2023-04-15T08:07:50;9.80;99.90
12811;DHT22;6470;47.654;7.896;2023-04-15T08:10:16;10.00;99.90
12811;DHT22;6470;47.654;7.896;2023-04-15T08:15:08;10.50;99.90
12811;DHT22;6470;47.654;7.896;2023-04-15T08:17:34;9.90;99.90
12811;DHT22;6470;47.654;7.896;2023-04-15T08:22:26;10.20;99.90
12811;DHT22;6470;47.654;7.896;2023-04-15T08:24:52;9.50;99.90
12811;DHT22;6470;47.654;7.896;2023-04-15T08:27:17;10.00;99.90
12811;DHT22;6470;47.654;7.896;2023-04-15T08:29:43;9.80;99.90
12811;DHT22;6470;47.654;7.896;2023-04-15T08:32:10;10.00;99.90
12811;DHT22;6470;47.654;7.896;2023-04-15T08:34:35;10.20;99.90
12811;DHT22;6470;47.654;7.896;2023-04-15T08:37:01;9.80;99.90
12811;DHT22;6470;47.654;7.896;2023-04-15T08:39:27;10.40;99.90
12811;DHT22;6470;47.654;7.896;2023-04-15T08:42:02;9.70;99.90
12811;DHT22;6470;47.654;7.896;2023-04-15T08:44:29;9.80;99.90
12811;DHT22;6470;47.654;7.896;2023-04-15T08:46:58;10.00;99.90
12811;DHT22;6470;47.654;7.896;2023-04-15T08:49:26;10.20;99.90
12811;DHT22;6470;47.654;7.896;2023-04-15T08:51:54;10.20;99.90
12811;DHT22;6470;47.654;7.896;2023-04-15T08:54:21;10.30;99.90
12811;DHT22;6470;47.654;7.896;2023-04-15T08:56:47;9.60;99.90
12811;DHT22;6470;47.654;7.896;2023-04-15T08:59:14;9.50;99.90
12811;DHT22;6470;47.654;7.896;2023-04-15T09:01:41;10.60;99.90
12811;DHT22;6470;47.654;7.896;2023-04-15T09:04:07;10.90;99.90
12811;DHT22;6470;47.654;7.896;2023-04-15T09:08:59;9.70;99.90
12811;DHT22;6470;47.654;7.896;2023-04-15T09:11:25;10.50;99.90
12811;DHT22;6470;47.654;7.896;2023-04-15T09:13:51;10.60;99.90
12811;DHT22;6470;47.654;7.896;2023-04-15T09:16:17;12.40;99.90
12811;DHT22;6470;47.654;7.896;2023-04-15T09:18:43;10.50;99.90
12811;DHT22;6470;47.654;7.896;2023-04-15T09:21:16;10.50;99.90
12811;DHT22;6470;47.654;7.896;2023-04-15T09:23:59;10.80;99.90
12811;DHT22;6470;47.654;7.896;2023-04-15T09:26:36;10.50;99.90
12811;DHT22;6470;47.654;7.896;2023-04-15T09:29:06;11.90;99.90
12811;DHT22;6470;47.654;7.896;2023-04-15T09:31:32;12.30;99.90
12811;DHT22;6470;47.654;7.896;2023-04-15T09:33:58;12.20;99.90
12811;DHT22;6470;47.654;7.896;2023-04-15T09:36:24;12.00;99.90
12811;DHT22;6470;47.654;7.896;2023-04-15T09:38:59;12.00;99.90
12811;DHT22;6470;47.654;7.896;2023-04-15T09:41:26;10.90;99.90
12811;DHT22;6470;47.654;7.896;2023-04-15T09:43:52;11.80;99.90
12811;DHT22;6470;47.654;7.896;2023-04-15T09:46:18;12.30;99.90
12811;DHT22;6470;47.654;7.896;2023-04-15T09:48:43;10.90;99.90
12811;DHT22;6470;47.654;7.896;2023-04-15T09:51:09;11.70;99.90
12811;DHT22;6470;47.654;7.896;2023-04-15T09:53:36;11.90;99.90
12811;DHT22;6470;47.654;7.896;2023-04-15T09:56:03;11.90;99.90
12811;DHT22;6470;47.654;7.896;2023-04-15T09:58:31;12.20;99.90
12811;DHT22;6470;47.654;7.896;2023-04-15T10:00:58;11.20;99.90
12811;DHT22;6470;47.654;7.896;2023-04-15T10:03:29;10.20;99.90
12811;DHT22;6470;47.654;7.896;2023-04-15T10:05:58;12.60;99.90
12811;DHT22;6470;47.654;7.896;2023-04-15T10:08:26;11.20;99.90
12811;DHT22;6470;47.654;7.896;2023-04-15T10:10:52;12.50;99.90
12811;DHT22;6470;47.654;7.896;2023-04-15T10:13:23;12.20;99.90
12811;DHT22;6470;47.654;7.896;2023-04-15T10:16:10;12.50;99.90
12811;DHT22;6470;47.654;7.896;2023-04-15T10:18:47;12.60;99.90
12811;DHT22;6470;47.654;7.896;2023-04-15T10:21:14;9.90;99.90
12811;DHT22;6470;47.654;7.896;2023-04-15T10:26:09;12.20;99.90
12811;DHT22;6470;47.654;7.896;2023-04-15T10:28:37;11.80;99.90
12811;DHT22;6470;47.654;7.896;2023-04-15T10:31:04;15.00;99.90
12811;DHT22;6470;47.654;7.896;2023-04-15T10:33:31;12.60;99.90
12811;DHT22;6470;47.654;7.896;2023-04-15T10:35:57;12.20;99.90
12811;DHT22;6470;47.654;7.896;2023-04-15T10:38:44;11.50;99.90
12811;DHT22;6470;47.654;7.896;2023-04-15T10:41:24;11.90;99.90
12811;DHT22;6470;47.654;7.896;2023-04-15T10:44:01;11.90;99.90
12811;DHT22;6470;47.654;7.896;2023-04-15T10:46:41;11.50;99.90
12811;DHT22;6470;47.654;7.896;2023-04-15T10:49:23;12.50;99.90
12811;DHT22;6470;47.654;7.896;2023-04-15T10:51:56;12.20;99.90
12811;DHT22;6470;47.654;7.896;2023-04-15T10:57:06;10.10;99.90
12811;DHT22;6470;47.654;7.896;2023-04-15T10:59:37;11.80;99.90
12811;DHT22;6470;47.654;7.896;2023-04-15T11:02:05;15.30;99.90
12811;DHT22;6470;47.654;7.896;2023-04-15T11:04:55;10.10;99.90
12811;DHT22;6470;47.654;7.896;2023-04-15T11:13:14;9.80;99.90
12811;DHT22;6470;47.654;7.896;2023-04-15T11:15:42;12.20;99.90
12811;DHT22;6470;47.654;7.896;2023-04-15T11:18:20;15.20;99.90
12811;DHT22;6470;47.654;7.896;2023-04-15T11:20:51;15.00;99.90
12811;DHT22;6470;47.654;7.896;2023-04-15T11:23:26;12.20;99.90
12811;DHT22;6470;47.654;7.896;2023-04-15T11:25:54;15.40;99.90
12811;DHT22;6470;47.654;7.896;2023-04-15T11:28:29;14.80;99.90
12811;DHT22;6470;47.654;7.896;2023-04-15T11:30:55;15.30;99.90
12811;DHT22;6470;47.654;7.896;2023-04-15T11:33:21;15.40;99.90
12811;DHT22;6470;47.654;7.896;2023-04-15T11:35:48;15.30;99.90
12811;DHT22;6470;47.654;7.896;2023-04-15T11:38:15;12.30;99.90
12811;DHT22;6470;47.654;7.896;2023-04-15T11:40:42;12.30;99.90
12811;DHT22;6470;47.654;7.896;2023-04-15T11:43:16;12.40;99.90
12811;DHT22;6470;47.654;7.896;2023-04-15T11:45:54;15.30;99.90
12811;DHT22;6470;47.654;7.896;2023-04-15T11:48:27;14.60;99.90
12811;DHT22;6470;47.654;7.896;2023-04-15T11:51:01;15.10;99.90
12811;DHT22;6470;47.654;7.896;2023-04-15T11:53:44;12.50;99.90
12811;DHT22;6470;47.654;7.896;2023-04-15T11:56:19;14.80;99.90
12811;DHT22;6470;47.654;7.896;2023-04-15T11:58:46;12.70;99.90
12811;DHT22;6470;47.654;7.896;2023-04-15T12:03:44;13.30;99.90
12811;DHT22;6470;47.654;7.896;2023-04-15T12:06:21;15.30;99.90
12811;DHT22;6470;47.654;7.896;2023-04-15T12:13:49;13.20;99.90
12811;DHT22;6470;47.654;7.896;2023-04-15T12:16:19;14.80;99.90
12811;DHT22;6470;47.654;7.896;2023-04-15T12:18:55;15.30;99.90
12811;DHT22;6470;47.654;7.896;2023-04-15T12:21:22;13.20;99.90
12811;DHT22;6470;47.654;7.896;2023-04-15T12:23:55;10.40;99.90
12811;DHT22;6470;47.654;7.896;2023-04-15T12:26:50;13.10;99.90
12811;DHT22;6470;47.654;7.896;2023-04-15T12:29:15;15.20;99.90
12811;DHT22;6470;47.654;7.896;2023-04-15T12:32:03;15.70;99.90
12811;DHT22;6470;47.654;7.896;2023-04-15T12:34:30;15.50;99.90
12811;DHT22;6470;47.654;7.896;2023-04-15T12:36:58;15.20;99.90
12811;DHT22;6470;47.654;7.896;2023-04-15T12:39:25;12.80;99.90
12811;DHT22;6470;47.654;7.896;2023-04-15T12:41:52;15.10;99.90
12811;DHT22;6470;47.654;7.896;2023-04-15T12:44:18;12.70;99.90
12811;DHT22;6470;47.654;7.896;2023-04-15T12:46:45;12.70;99.90
12811;DHT22;6470;47.654;7.896;2023-04-15T12:49:11;14.90;99.90
12811;DHT22;6470;47.654;7.896;2023-04-15T12:51:39;15.60;99.90
12811;DHT22;6470;47.654;7.896;2023-04-15T12:54:05;12.60;99.90
12811;DHT22;6470;47.654;7.896;2023-04-15T12:56:31;15.20;99.90
12811;DHT22;6470;47.654;7.896;2023-04-15T12:58:56;15.20;99.90
12811;DHT22;6470;47.654;7.896;2023-04-15T13:01:22;15.10;99.90
12811;DHT22;6470;47.654;7.896;2023-04-15T13:03:48;11.90;99.90
12811;DHT22;6470;47.654;7.896;2023-04-15T13:06:15;15.00;99.90
12811;DHT22;6470;47.654;7.896;2023-04-15T13:08:41;12.20;99.90
12811;DHT22;6470;47.654;7.896;2023-04-15T13:13:33;9.90;99.90
12811;DHT22;6470;47.654;7.896;2023-04-15T13:15:59;11.50;99.90
12811;DHT22;6470;47.654;7.896;2023-04-15T13:18:25;12.60;99.90
12811;DHT22;6470;47.654;7.896;2023-04-15T13:20:51;11.50;99.90
12811;DHT22;6470;47.654;7.896;2023-04-15T13:23:16;11.50;99.90
12811;DHT22;6470;47.654;7.896;2023-04-15T13:25:42;11.70;99.90
12811;DHT22;6470;47.654;7.896;2023-04-15T13:28:10;10.30;99.90
12811;DHT22;6470;47.654;7.896;2023-04-15T13:30:37;11.00;99.90
12811;DHT22;6470;47.654;7.896;2023-04-15T13:35:31;10.90;99.90
12811;DHT22;6470;47.654;7.896;2023-04-15T13:42:50;12.20;99.90
12811;DHT22;6470;47.654;7.896;2023-04-15T13:45:17;10.10;99.90
12811;DHT22;6470;47.654;7.896;2023-04-15T13:47:43;10.70;99.90
12811;DHT22;6470;47.654;7.896;2023-04-15T13:50:09;11.90;99.90
12811;DHT22;6470;47.654;7.896;2023-04-15T13:52:35;10.80;99.90
12811;DHT22;6470;47.654;7.896;2023-04-15T13:55:02;12.00;99.90
12811;DHT22;6470;47.654;7.896;2023-04-15T13:57:28;12.20;99.90
12811;DHT22;6470;47.654;7.896;2023-04-15T13:59:54;11.70;99.90
12811;DHT22;6470;47.654;7.896;2023-04-15T14:02:20;10.90;99.90
12811;DHT22;6470;47.654;7.896;2023-04-15T14:04:46;11.00;99.90
12811;DHT22;6470;47.654;7.896;2023-04-15T14:07:12;11.50;99.90
12811;DHT22;6470;47.654;7.896;2023-04-15T14:09:38;11.80;99.90
12811;DHT22;6470;47.654;7.896;2023-04-15T14:12:04;10.70;99.90
12811;DHT22;6470;47.654;7.896;2023-04-15T14:14:30;12.30;99.90
12811;DHT22;6470;47.654;7.896;2023-04-15T14:16:56;12.60;99.90
12811;DHT22;6470;47.654;7.896;2023-04-15T14:19:22;12.40;99.90
12811;DHT22;6470;47.654;7.896;2023-04-15T14:21:48;10.80;99.90
12811;DHT22;6470;47.654;7.896;2023-04-15T14:24:14;11.20;99.90
12811;DHT22;6470;47.654;7.896;2023-04-15T14:26:39;12.30;99.90
12811;DHT22;6470;47.654;7.896;2023-04-15T14:29:08;12.10;99.90
12811;DHT22;6470;47.654;7.896;2023-04-15T14:31:33;11.60;99.90
12811;DHT22;6470;47.654;7.896;2023-04-15T14:33:59;15.50;99.90
12811;DHT22;6470;47.654;7.896;2023-04-15T14:36:25;15.50;99.90
12811;DHT22;6470;47.654;7.896;2023-04-15T14:38:51;12.20;99.90
12811;DHT22;6470;47.654;7.896;2023-04-15T14:41:17;15.20;99.90
12811;DHT22;6470;47.654;7.896;2023-04-15T14:43:42;11.80;99.90
12811;DHT22;6470;47.654;7.896;2023-04-15T14:46:09;12.80;99.90
12811;DHT22;6470;47.654;7.896;2023-04-15T14:55:53;12.10;99.90
12811;DHT22;6470;47.654;7.896;2023-04-15T14:58:19;11.60;99.90
12811;DHT22;6470;47.654;7.896;2023-04-15T15:00:45;10.20;99.90
12811;DHT22;6470;47.654;7.896;2023-04-15T15:03:11;11.80;99.90
12811;DHT22;6470;47.654;7.896;2023-04-15T15:05:38;11.40;99.90
12811;DHT22;6470;47.654;7.896;2023-04-15T15:08:06;11.30;99.90
12811;DHT22;6470;47.654;7.896;2023-04-15T15:10:32;11.70;99.90
12811;DHT22;6470;47.654;7.896;2023-04-15T15:12:58;14.80;99.90
12811;DHT22;6470;47.654;7.896;2023-04-15T15:15:24;14.90;99.90
12811;DHT22;6470;47.654;7.896;2023-04-15T15:17:50;15.10;99.90
12811;DHT22;6470;47.654;7.896;2023-04-15T15:20:16;15.10;99.90
12811;DHT22;6470;47.654;7.896;2023-04-15T15:25:08;15.80;99.90
12811;DHT22;6470;47.654;7.896;2023-04-15T15:30:00;10.70;99.90
12811;DHT22;6470;47.654;7.896;2023-04-15T15:32:25;14.90;99.90
12811;DHT22;6470;47.654;7.896;2023-04-15T15:39:43;14.70;99.90
12811;DHT22;6470;47.654;7.896;2023-04-15T15:42:09;12.60;99.90
12811;DHT22;6470;47.654;7.896;2023-04-15T15:44:35;12.40;99.90
12811;DHT22;6470;47.654;7.896;2023-04-15T15:47:06;14.80;99.90
12811;DHT22;6470;47.654;7.896;2023-04-15T15:49:32;15.50;99.90
12811;DHT22;6470;47.654;7.896;2023-04-15T15:51:58;12.60;99.90
12811;DHT22;6470;47.654;7.896;2023-04-15T15:54:24;15.40;99.90
12811;DHT22;6470;47.654;7.896;2023-04-15T15:56:49;13.00;99.90
12811;DHT22;6470;47.654;7.896;2023-04-15T15:59:15;15.40;99.90
12811;DHT22;6470;47.654;7.896;2023-04-15T16:01:42;15.20;99.90
12811;DHT22;6470;47.654;7.896;2023-04-15T16:04:08;14.80;99.90
12811;DHT22;6470;47.654;7.896;2023-04-15T16:06:34;14.60;99.90
12811;DHT22;6470;47.654;7.896;2023-04-15T16:09:00;12.50;99.90
12811;DHT22;6470;47.654;7.896;2023-04-15T16:11:26;12.50;99.90
12811;DHT22;6470;47.654;7.896;2023-04-15T16:13:52;15.00;99.90
12811;DHT22;6470;47.654;7.896;2023-04-15T16:16:18;12.30;99.90
12811;DHT22;6470;47.654;7.896;2023-04-15T16:18:44;12.40;99.90
12811;DHT22;6470;47.654;7.896;2023-04-15T16:21:09;12.50;99.90
12811;DHT22;6470;47.654;7.896;2023-04-15T16:23:35;10.30;99.90
12811;DHT22;6470;47.654;7.896;2023-04-15T16:26:01;15.30;99.90
12811;DHT22;6470;47.654;7.896;2023-04-15T16:28:27;15.40;99.90
12811;DHT22;6470;47.654;7.896;2023-04-15T16:30:54;10.00;99.90
12811;DHT22;6470;47.654;7.896;2023-04-15T16:35:45;14.90;99.90
12811;DHT22;6470;47.654;7.896;2023-04-15T16:38:11;15.30;99.90
12811;DHT22;6470;47.654;7.896;2023-04-15T16:43:04;15.30;99.90
12811;DHT22;6470;47.654;7.896;2023-04-15T16:45:32;15.40;99.90
12811;DHT22;6470;47.654;7.896;2023-04-15T16:47:57;15.40;99.90
12811;DHT22;6470;47.654;7.896;2023-04-15T16:50:23;15.70;99.90
12811;DHT22;6470;47.654;7.896;2023-04-15T16:52:49;15.20;99.90
12811;DHT22;6470;47.654;7.896;2023-04-15T16:55:15;11.90;99.90
12811;DHT22;6470;47.654;7.896;2023-04-15T16:57:40;11.70;99.90
12811;DHT22;6470;47.654;7.896;2023-04-15T17:00:06;11.50;99.90
12811;DHT22;6470;47.654;7.896;2023-04-15T17:02:32;11.90;99.90
12811;DHT22;6470;47.654;7.896;2023-04-15T17:07:25;9.90;99.90
12811;DHT22;6470;47.654;7.896;2023-04-15T17:09:50;15.00;99.90
12811;DHT22;6470;47.654;7.896;2023-04-15T17:12:16;14.70;99.90
12811;DHT22;6470;47.654;7.896;2023-04-15T17:14:42;11.90;99.90
12811;DHT22;6470;47.654;7.896;2023-04-15T17:17:07;11.70;99.90
12811;DHT22;6470;47.654;7.896;2023-04-15T17:19:34;12.60;99.90
12811;DHT22;6470;47.654;7.896;2023-04-15T17:22:00;11.60;99.90
12811;DHT22;6470;47.654;7.896;2023-04-15T17:24:26;10.20;99.90
12811;DHT22;6470;47.654;7.896;2023-04-15T17:26:53;12.10;99.90
12811;DHT22;6470;47.654;7.896;2023-04-15T17:29:19;12.60;99.90
12811;DHT22;6470;47.654;7.896;2023-04-15T17:31:45;11.90;99.90
12811;DHT22;6470;47.654;7.896;2023-04-15T17:34:11;12.70;99.90
12811;DHT22;6470;47.654;7.896;2023-04-15T17:36:37;12.80;99.90
12811;DHT22;6470;47.654;7.896;2023-04-15T17:39:03;12.00;99.90
12811;DHT22;6470;47.654;7.896;2023-04-15T17:43:55;12.00;99.90
12811;DHT22;6470;47.654;7.896;2023-04-15T17:46:20;12.70;99.90
12811;DHT22;6470;47.654;7.896;2023-04-15T17:48:46;11.00;99.90
12811;DHT22;6470;47.654;7.896;2023-04-15T17:51:12;12.60;99.90